sensor_id;sensor_type;location;lat;lon;timestamp;temperature;humidity
1592;DHT22;789;51.612;7.510;2023-05-10T00:00:25;15.70;1.00
1592;DHT22;789;51.612;7.510;2023-05-10T00:02:52;15.70;1.00
1592;DHT22;789;51.612;7.510;2023-05-10T00:05:19;15.70;1.00
1592;DHT22;789;51.612;7.510;2023-05-10T00:07:46;15.70;1.00
1592;DHT22;789;51.612;7.510;2023-05-10T00:10:14;15.70;1.00
1592;DHT22;789;51.612;7.510;2023-05-10T00:12:41;15.70;1.00
1592;DHT22;789;51.612;7.510;2023-05-10T00:15:08;15.70;1.00
1592;DHT22;789;51.612;7.510;2023-05-10T00:17:35;15.60;1.00
1592;DHT22;789;51.612;7.510;2023-05-10T00:20:02;15.50;1.00
1592;DHT22;789;51.612;7.510;2023-05-10T00:22:30;15.50;1.00
1592;DHT22;789;51.612;7.510;2023-05-10T00:24:57;15.50;1.00
1592;DHT22;789;51.612;7.510;2023-05-10T00:27:25;15.40;1.00
1592;DHT22;789;51.612;7.510;2023-05-10T00:29:51;15.30;1.00
1592;DHT22;789;51.612;7.510;2023-05-10T00:32:18;15.30;1.00
1592;DHT22;789;51.612;7.510;2023-05-10T00:34:45;15.20;1.00
1592;DHT22;789;51.612;7.510;2023-05-10T00:37:12;15.20;1.00
1592;DHT22;789;51.612;7.510;2023-05-10T00:39:39;15.00;1.00
1592;DHT22;789;51.612;7.510;2023-05-10T00:42:06;15.00;1.00
1592;DHT22;789;51.612;7.510;2023-05-10T00:44:34;15.00;1.00
1592;DHT22;789;51.612;7.510;2023-05-10T00:47:01;15.10;1.00
1592;DHT22;789;51.612;7.510;2023-05-10T00:49:28;15.10;1.00
1592;DHT22;789;51.612;7.510;2023-05-10T00:51:55;15.10;1.00
1592;DHT22;789;51.612;7.510;2023-05-10T00:54:22;15.20;1.00
1592;DHT22;789;51.612;7.510;2023-05-10T00:56:49;15.20;1.00
1592;DHT22;789;51.612;7.510;2023-05-10T00:59:17;15.30;1.00
1592;DHT22;789;51.612;7.510;2023-05-10T01:01:46;15.30;1.00
1592;DHT22;789;51.612;7.510;2023-05-10T01:04:13;15.40;1.00
1592;DHT22;789;51.612;7.510;2023-05-10T01:06:41;15.30;1.00
1592;DHT22;789;51.612;7.510;2023-05-10T01:09:08;15.40;1.00
1592;DHT22;789;51.612;7.510;2023-05-10T01:11:35;15.40;1.00
1592;DHT22;789;51.612;7.510;2023-05-10T01:14:03;15.50;1.00
1592;DHT22;789;51.612;7.510;2023-05-10T01:16:35;15.50;1.00
1592;DHT22;789;51.612;7.510;2023-05-10T01:19:05;15.60;1.00
1592;DHT22;789;51.612;7.510;2023-05-10T01:21:37;15.50;1.00
1592;DHT22;789;51.612;7.510;2023-05-10T01:27:28;15.60;1.00
1592;DHT22;789;51.612;7.510;2023-05-10T01:30:08;15.60;1.00
1592;DHT22;789;51.612;7.510;2023-05-10T01:32:45;15.70;1.00
1592;DHT22;789;51.612;7.510;2023-05-10T01:35:18;15.70;1.00
1592;DHT22;789;51.612;7.510;2023-05-10T01:37:52;15.60;1.00
1592;DHT22;789;51.612;7.510;2023-05-10T01:40:28;15.60;1.00
1592;DHT22;789;51.612;7.510;2023-05-10T01:43:01;15.60;1.00
1592;DHT22;789;51.612;7.510;2023-05-10T01:45:33;15.60;1.00
1592;DHT22;789;51.612;7.510;2023-05-10T01:48:06;15.60;1.00
1592;DHT22;789;51.612;7.510;2023-05-10T01:50:35;15.60;1.00
1592;DHT22;789;51.612;7.510;2023-05-10T01:53:06;15.60;1.00
1592;DHT22;789;51.612;7.510;2023-05-10T01:55:38;15.60;1.00
1592;DHT22;789;51.612;7.510;2023-05-10T01:58:09;15.60;1.00
1592;DHT22;789;51.612;7.510;2023-05-10T02:00:37;15.50;1.00
1592;DHT22;789;51.612;7.510;2023-05-10T02:03:08;15.50;1.00
1592;DHT22;789;51.612;7.510;2023-05-10T02:05:37;15.50;1.00
1592;DHT22;789;51.612;7.510;2023-05-10T02:08:06;15.50;1.00
1592;DHT22;789;51.612;7.510;2023-05-10T02:10:34;15.50;1.00
1592;DHT22;789;51.612;7.510;2023-05-10T02:13:02;15.40;1.00
1592;DHT22;789;51.612;7.510;2023-05-10T02:15:30;15.40;1.00
1592;DHT22;789;51.612;7.510;2023-05-10T02:17:58;15.30;1.00
1592;DHT22;789;51.612;7.510;2023-05-10T02:20:29;15.30;1.00
1592;DHT22;789;51.612;7.510;2023-05-10T02:22:58;15.30;1.00
1592;DHT22;789;51.612;7.510;2023-05-10T02:25:27;15.20;1.00
1592;DHT22;789;51.612;7.510;2023-05-10T02:27:56;15.20;1.00
1592;DHT22;789;51.612;7.510;2023-05-10T02:30:24;15.20;1.00
1592;DHT22;789;51.612;7.510;2023-05-10T02:32:52;15.10;1.00
1592;DHT22;789;51.612;7.510;2023-05-10T02:35:21;15.10;1.00
1592;DHT22;789;51.612;7.510;2023-05-10T02:37:50;15.00;1.00
1592;DHT22;789;51.612;7.510;2023-05-10T02:40:17;15.00;1.00
1592;DHT22;789;51.612;7.510;2023-05-10T02:42:47;15.00;1.00
1592;DHT22;789;51.612;7.510;2023-05-10T02:45:19;14.90;1.00
1592;DHT22;789;51.612;7.510;2023-05-10T02:47:47;14.90;1.00
1592;DHT22;789;51.612;7.510;2023-05-10T02:50:14;14.90;1.00
1592;DHT22;789;51.612;7.510;2023-05-10T02:52:44;14.90;1.00
1592;DHT22;789;51.612;7.510;2023-05-10T02:55:15;14.90;1.00
1592;DHT22;789;51.612;7.510;2023-05-10T02:57:48;14.80;1.00
1592;DHT22;789;51.612;7.510;2023-05-10T03:00:17;14.70;1.00
1592;DHT22;789;51.612;7.510;2023-05-10T03:02:44;14.70;1.00
1592;DHT22;789;51.612;7.510;2023-05-10T03:05:11;14.70;1.00
1592;DHT22;789;51.612;7.510;2023-05-10T03:07:38;14.60;1.00
1592;DHT22;789;51.612;7.510;2023-05-10T03:10:06;14.60;1.00
1592;DHT22;789;51.612;7.510;2023-05-10T03:12:50;14.60;1.00
1592;DHT22;789;51.612;7.510;2023-05-10T03:15:25;14.60;1.00
1592;DHT22;789;51.612;7.510;2023-05-10T03:18:01;14.60;1.00
1592;DHT22;789;51.612;7.510;2023-05-10T03:20:35;14.60;1.00
1592;DHT22;789;51.612;7.510;2023-05-10T03:23:04;14.60;1.00
1592;DHT22;789;51.612;7.510;2023-05-10T03:25:34;14.70;1.00
1592;DHT22;789;51.612;7.510;2023-05-10T03:28:03;14.70;1.00
1592;DHT22;789;51.612;7.510;2023-05-10T03:30:31;14.70;1.00
1592;DHT22;789;51.612;7.510;2023-05-10T03:33:04;14.60;1.00
1592;DHT22;789;51.612;7.510;2023-05-10T03:35:31;14.70;1.00
1592;DHT22;789;51.612;7.510;2023-05-10T03:37:57;14.70;1.00
1592;DHT22;789;51.612;7.510;2023-05-10T03:40:25;14.70;1.00
1592;DHT22;789;51.612;7.510;2023-05-10T03:42:54;14.70;1.00
1592;DHT22;789;51.612;7.510;2023-05-10T03:45:22;14.70;1.00
1592;DHT22;789;51.612;7.510;2023-05-10T03:47:49;14.80;1.00
1592;DHT22;789;51.612;7.510;2023-05-10T03:50:15;14.80;1.00
1592;DHT22;789;51.612;7.510;2023-05-10T03:52:43;14.80;1.00
1592;DHT22;789;51.612;7.510;2023-05-10T03:55:10;14.70;1.00
1592;DHT22;789;51.612;7.510;2023-05-10T03:57:39;14.70;1.00
1592;DHT22;789;51.612;7.510;2023-05-10T04:00:06;14.60;1.00
1592;DHT22;789;51.612;7.510;2023-05-10T04:02:35;14.60;1.00
1592;DHT22;789;51.612;7.510;2023-05-10T04:05:01;14.60;1.00
1592;DHT22;789;51.612;7.510;2023-05-10T04:07:29;14.60;1.00
1592;DHT22;789;51.612;7.510;2023-05-10T04:09:55;14.50;1.00
1592;DHT22;789;51.612;7.510;2023-05-10T04:12:22;14.60;1.00
1592;DHT22;789;51.612;7.510;2023-05-10T04:14:49;14.60;1.00
1592;DHT22;789;51.612;7.510;2023-05-10T04:17:16;14.60;1.00
1592;DHT22;789;51.612;7.510;2023-05-10T04:19:44;14.60;1.00
1592;DHT22;789;51.612;7.510;2023-05-10T04:22:11;14.60;1.00
1592;DHT22;789;51.612;7.510;2023-05-10T04:24:38;14.70;1.00
1592;DHT22;789;51.612;7.510;2023-05-10T04:27:05;14.70;1.00
1592;DHT22;789;51.612;7.510;2023-05-10T04:29:31;14.70;1.00
1592;DHT22;789;51.612;7.510;2023-05-10T04:31:58;14.70;1.00
1592;DHT22;789;51.612;7.510;2023-05-10T04:34:25;14.70;1.00
1592;DHT22;789;51.612;7.510;2023-05-10T04:36:53;14.80;1.00
1592;DHT22;789;51.612;7.510;2023-05-10T04:39:19;14.90;1.00
1592;DHT22;789;51.612;7.510;2023-05-10T04:41:46;15.00;1.00
1592;DHT22;789;51.612;7.510;2023-05-10T04:44:13;15.00;1.00
1592;DHT22;789;51.612;7.510;2023-05-10T04:46:40;15.10;1.00
1592;DHT22;789;51.612;7.510;2023-05-10T04:49:07;15.10;1.00
1592;DHT22;789;51.612;7.510;2023-05-10T04:51:33;15.10;1.00
1592;DHT22;789;51.612;7.510;2023-05-10T04:54:02;15.10;1.00
1592;DHT22;789;51.612;7.510;2023-05-10T04:56:28;15.10;1.00
1592;DHT22;789;51.612;7.510;2023-05-10T04:58:57;15.10;1.00
1592;DHT22;789;51.612;7.510;2023-05-10T05:01:24;15.10;1.00
1592;DHT22;789;51.612;7.510;2023-05-10T05:03:50;15.20;1.00
1592;DHT22;789;51.612;7.510;2023-05-10T05:06:20;15.10;1.00
1592;DHT22;789;51.612;7.510;2023-05-10T05:08:51;15.40;1.00
1592;DHT22;789;51.612;7.510;2023-05-10T05:11:20;15.00;1.00
1592;DHT22;789;51.612;7.510;2023-05-10T05:13:47;15.20;1.00
1592;DHT22;789;51.612;7.510;2023-05-10T05:16:17;15.00;1.00
1592;DHT22;789;51.612;7.510;2023-05-10T05:18:44;15.00;1.00
1592;DHT22;789;51.612;7.510;2023-05-10T05:21:14;15.00;1.00
1592;DHT22;789;51.612;7.510;2023-05-10T05:23:47;15.00;1.00
1592;DHT22;789;51.612;7.510;2023-05-10T05:26:14;15.10;1.00
1592;DHT22;789;51.612;7.510;2023-05-10T05:28:42;15.00;1.00
1592;DHT22;789;51.612;7.510;2023-05-10T05:31:12;15.10;1.00
1592;DHT22;789;51.612;7.510;2023-05-10T05:33:39;15.10;1.00
1592;DHT22;789;51.612;7.510;2023-05-10T05:36:06;15.20;1.00
1592;DHT22;789;51.612;7.510;2023-05-10T05:38:33;15.20;1.00
1592;DHT22;789;51.612;7.510;2023-05-10T05:41:00;15.20;1.00
1592;DHT22;789;51.612;7.510;2023-05-10T05:43:27;15.20;1.00
1592;DHT22;789;51.612;7.510;2023-05-10T05:45:55;15.20;1.00
1592;DHT22;789;51.612;7.510;2023-05-10T05:48:26;15.30;1.00
1592;DHT22;789;51.612;7.510;2023-05-10T05:50:54;15.30;1.00
1592;DHT22;789;51.612;7.510;2023-05-10T05:53:22;15.30;1.00
1592;DHT22;789;51.612;7.510;2023-05-10T05:55:52;15.30;1.00
1592;DHT22;789;51.612;7.510;2023-05-10T05:58:19;15.30;1.00
1592;DHT22;789;51.612;7.510;2023-05-10T06:00:46;15.40;1.00
1592;DHT22;789;51.612;7.510;2023-05-10T06:03:14;15.50;1.00
1592;DHT22;789;51.612;7.510;2023-05-10T06:05:41;15.40;1.00
1592;DHT22;789;51.612;7.510;2023-05-10T06:08:08;15.30;1.00
1592;DHT22;789;51.612;7.510;2023-05-10T06:10:35;15.20;1.00
1592;DHT22;789;51.612;7.510;2023-05-10T06:13:02;15.40;1.00
1592;DHT22;789;51.612;7.510;2023-05-10T06:15:29;15.40;1.00
1592;DHT22;789;51.612;7.510;2023-05-10T06:17:56;15.50;1.00
1592;DHT22;789;51.612;7.510;2023-05-10T06:20:24;15.50;1.00
1592;DHT22;789;51.612;7.510;2023-05-10T06:22:51;15.50;1.00
1592;DHT22;789;51.612;7.510;2023-05-10T06:25:18;15.50;1.00
1592;DHT22;789;51.612;7.510;2023-05-10T06:27:45;15.50;1.00
1592;DHT22;789;51.612;7.510;2023-05-10T06:30:12;15.60;1.00
1592;DHT22;789;51.612;7.510;2023-05-10T06:32:40;15.60;1.00
1592;DHT22;789;51.612;7.510;2023-05-10T06:35:11;15.60;1.00
1592;DHT22;789;51.612;7.510;2023-05-10T06:37:39;15.60;1.00
1592;DHT22;789;51.612;7.510;2023-05-10T06:40:07;15.60;1.00
1592;DHT22;789;51.612;7.510;2023-05-10T06:42:34;15.70;1.00
1592;DHT22;789;51.612;7.510;2023-05-10T06:45:02;15.70;1.00
1592;DHT22;789;51.612;7.510;2023-05-10T06:47:29;15.70;1.00
1592;DHT22;789;51.612;7.510;2023-05-10T06:49:56;15.80;1.00
1592;DHT22;789;51.612;7.510;2023-05-10T06:52:23;15.90;1.00
1592;DHT22;789;51.612;7.510;2023-05-10T06:54:51;16.00;1.00
1592;DHT22;789;51.612;7.510;2023-05-10T06:57:18;16.10;1.00
1592;DHT22;789;51.612;7.510;2023-05-10T06:59:46;16.30;1.00
1592;DHT22;789;51.612;7.510;2023-05-10T07:02:13;16.50;1.00
1592;DHT22;789;51.612;7.510;2023-05-10T07:04:40;16.80;1.00
1592;DHT22;789;51.612;7.510;2023-05-10T07:07:07;17.20;1.00
1592;DHT22;789;51.612;7.510;2023-05-10T07:09:33;17.40;1.00
1592;DHT22;789;51.612;7.510;2023-05-10T07:12:02;17.60;1.00
1592;DHT22;789;51.612;7.510;2023-05-10T07:14:29;17.50;1.00
1592;DHT22;789;51.612;7.510;2023-05-10T07:17:01;17.40;1.00
1592;DHT22;789;51.612;7.510;2023-05-10T07:19:28;17.50;1.00
1592;DHT22;789;51.612;7.510;2023-05-10T07:21:55;17.50;1.00
1592;DHT22;789;51.612;7.510;2023-05-10T07:24:22;17.40;1.00
1592;DHT22;789;51.612;7.510;2023-05-10T07:26:49;17.30;1.00
1592;DHT22;789;51.612;7.510;2023-05-10T07:29:17;17.30;1.00
1592;DHT22;789;51.612;7.510;2023-05-10T07:31:44;17.60;1.00
1592;DHT22;789;51.612;7.510;2023-05-10T07:34:11;18.00;1.00
1592;DHT22;789;51.612;7.510;2023-05-10T07:36:38;18.30;1.00
1592;DHT22;789;51.612;7.510;2023-05-10T07:39:06;18.60;1.00
1592;DHT22;789;51.612;7.510;2023-05-10T07:41:33;19.00;1.00
1592;DHT22;789;51.612;7.510;2023-05-10T07:44:00;19.70;1.00
1592;DHT22;789;51.612;7.510;2023-05-10T07:46:28;20.60;1.00
1592;DHT22;789;51.612;7.510;2023-05-10T07:48:54;21.10;1.00
1592;DHT22;789;51.612;7.510;2023-05-10T07:51:21;21.40;1.00
1592;DHT22;789;51.612;7.510;2023-05-10T07:53:48;21.30;1.00
1592;DHT22;789;51.612;7.510;2023-05-10T07:56:23;21.20;1.00
1592;DHT22;789;51.612;7.510;2023-05-10T07:58:50;21.00;1.00
1592;DHT22;789;51.612;7.510;2023-05-10T08:01:17;21.10;1.00
1592;DHT22;789;51.612;7.510;2023-05-10T08:03:51;21.40;1.00
1592;DHT22;789;51.612;7.510;2023-05-10T08:06:19;21.90;1.00
1592;DHT22;789;51.612;7.510;2023-05-10T08:08:46;22.90;1.00
1592;DHT22;789;51.612;7.510;2023-05-10T08:11:15;23.50;1.00
1592;DHT22;789;51.612;7.510;2023-05-10T08:13:44;23.60;1.00
1592;DHT22;789;51.612;7.510;2023-05-10T08:16:18;23.60;1.00
1592;DHT22;789;51.612;7.510;2023-05-10T08:18:45;23.70;1.00
1592;DHT22;789;51.612;7.510;2023-05-10T08:21:17;24.30;1.00
1592;DHT22;789;51.612;7.510;2023-05-10T08:23:46;25.10;1.00
1592;DHT22;789;51.612;7.510;2023-05-10T08:26:14;25.70;1.00
1592;DHT22;789;51.612;7.510;2023-05-10T08:28:41;26.60;1.00
1592;DHT22;789;51.612;7.510;2023-05-10T08:31:08;27.00;1.00
1592;DHT22;789;51.612;7.510;2023-05-10T08:33:35;27.10;1.00
1592;DHT22;789;51.612;7.510;2023-05-10T08:36:02;27.80;1.00
1592;DHT22;789;51.612;7.510;2023-05-10T08:38:31;28.20;1.00
1592;DHT22;789;51.612;7.510;2023-05-10T08:40:58;28.50;1.00
1592;DHT22;789;51.612;7.510;2023-05-10T08:43:27;28.10;1.00
1592;DHT22;789;51.612;7.510;2023-05-10T08:45:55;27.50;1.00
1592;DHT22;789;51.612;7.510;2023-05-10T08:48:24;26.90;1.00
1592;DHT22;789;51.612;7.510;2023-05-10T08:50:53;25.90;1.00
1592;DHT22;789;51.612;7.510;2023-05-10T08:53:21;25.20;1.00
1592;DHT22;789;51.612;7.510;2023-05-10T08:55:54;24.50;1.00
1592;DHT22;789;51.612;7.510;2023-05-10T08:58:21;23.80;1.00
1592;DHT22;789;51.612;7.510;2023-05-10T09:00:49;23.00;1.00
1592;DHT22;789;51.612;7.510;2023-05-10T09:03:18;22.30;1.00
1592;DHT22;789;51.612;7.510;2023-05-10T09:05:44;21.50;1.00
1592;DHT22;789;51.612;7.510;2023-05-10T09:08:15;20.90;1.00
1592;DHT22;789;51.612;7.510;2023-05-10T09:10:43;20.50;1.00
1592;DHT22;789;51.612;7.510;2023-05-10T09:13:19;20.30;1.00
1592;DHT22;789;51.612;7.510;2023-05-10T09:15:49;20.80;1.00
1592;DHT22;789;51.612;7.510;2023-05-10T09:18:17;22.50;1.00
1592;DHT22;789;51.612;7.510;2023-05-10T09:20:44;24.30;1.00
1592;DHT22;789;51.612;7.510;2023-05-10T09:23:13;25.40;1.00
1592;DHT22;789;51.612;7.510;2023-05-10T09:25:41;26.00;1.00
1592;DHT22;789;51.612;7.510;2023-05-10T09:28:11;25.50;1.00
1592;DHT22;789;51.612;7.510;2023-05-10T09:30:39;24.70;1.00
1592;DHT22;789;51.612;7.510;2023-05-10T09:33:08;23.90;1.00
1592;DHT22;789;51.612;7.510;2023-05-10T09:35:34;23.30;1.00
1592;DHT22;789;51.612;7.510;2023-05-10T09:38:03;22.60;1.00
1592;DHT22;789;51.612;7.510;2023-05-10T09:40:31;22.10;1.00
1592;DHT22;789;51.612;7.510;2023-05-10T09:42:59;21.30;1.00
1592;DHT22;789;51.612;7.510;2023-05-10T09:45:28;20.70;1.00
1592;DHT22;789;51.612;7.510;2023-05-10T09:47:57;20.20;1.00
1592;DHT22;789;51.612;7.510;2023-05-10T09:50:25;20.10;1.00
1592;DHT22;789;51.612;7.510;2023-05-10T09:52:54;19.90;1.00
1592;DHT22;789;51.612;7.510;2023-05-10T09:55:24;19.80;1.00
1592;DHT22;789;51.612;7.510;2023-05-10T09:57:59;19.70;1.00
1592;DHT22;789;51.612;7.510;2023-05-10T10:00:26;19.80;1.00
1592;DHT22;789;51.612;7.510;2023-05-10T10:02:56;19.90;1.00
1592;DHT22;789;51.612;7.510;2023-05-10T10:05:28;20.00;1.00
1592;DHT22;789;51.612;7.510;2023-05-10T10:07:57;20.10;1.00
1592;DHT22;789;51.612;7.510;2023-05-10T10:10:24;20.10;1.00
1592;DHT22;789;51.612;7.510;2023-05-10T10:12:51;20.10;1.00
1592;DHT22;789;51.612;7.510;2023-05-10T10:15:18;20.50;1.00
1592;DHT22;789;51.612;7.510;2023-05-10T10:17:45;21.70;1.00
1592;DHT22;789;51.612;7.510;2023-05-10T10:20:16;22.70;1.00
1592;DHT22;789;51.612;7.510;2023-05-10T10:22:43;23.80;1.00
1592;DHT22;789;51.612;7.510;2023-05-10T10:25:12;24.50;1.00
1592;DHT22;789;51.612;7.510;2023-05-10T10:27:48;25.10;1.00
1592;DHT22;789;51.612;7.510;2023-05-10T10:30:27;25.40;1.00
1592;DHT22;789;51.612;7.510;2023-05-10T10:33:11;25.50;1.00
1592;DHT22;789;51.612;7.510;2023-05-10T10:35:42;24.90;1.00
1592;DHT22;789;51.612;7.510;2023-05-10T10:38:12;25.00;1.00
1592;DHT22;789;51.612;7.510;2023-05-10T10:40:39;25.50;1.00
1592;DHT22;789;51.612;7.510;2023-05-10T10:43:25;26.20;1.00
1592;DHT22;789;51.612;7.510;2023-05-10T10:46:18;27.10;1.00
1592;DHT22;789;51.612;7.510;2023-05-10T10:48:48;28.10;1.00
1592;DHT22;789;51.612;7.510;2023-05-10T10:51:16;28.30;1.00
1592;DHT22;789;51.612;7.510;2023-05-10T10:53:43;29.00;1.00
1592;DHT22;789;51.612;7.510;2023-05-10T10:56:11;30.00;1.00
1592;DHT22;789;51.612;7.510;2023-05-10T10:58:41;30.50;1.00
1592;DHT22;789;51.612;7.510;2023-05-10T11:01:12;30.30;1.00
1592;DHT22;789;51.612;7.510;2023-05-10T11:03:39;29.70;1.00
1592;DHT22;789;51.612;7.510;2023-05-10T11:06:06;28.90;1.00
1592;DHT22;789;51.612;7.510;2023-05-10T11:08:41;28.20;1.00
1592;DHT22;789;51.612;7.510;2023-05-10T11:11:14;27.20;1.00
1592;DHT22;789;51.612;7.510;2023-05-10T11:13:42;26.00;1.00
1592;DHT22;789;51.612;7.510;2023-05-10T11:16:14;25.10;1.00
1592;DHT22;789;51.612;7.510;2023-05-10T11:18:47;23.90;1.00
1592;DHT22;789;51.612;7.510;2023-05-10T11:21:18;23.10;1.00
1592;DHT22;789;51.612;7.510;2023-05-10T11:23:52;22.40;1.00
1592;DHT22;789;51.612;7.510;2023-05-10T11:26:24;21.70;1.00
1592;DHT22;789;51.612;7.510;2023-05-10T11:28:54;21.10;1.00
1592;DHT22;789;51.612;7.510;2023-05-10T11:31:22;20.80;1.00
1592;DHT22;789;51.612;7.510;2023-05-10T11:33:53;20.60;1.00
1592;DHT22;789;51.612;7.510;2023-05-10T11:36:23;20.60;1.00
1592;DHT22;789;51.612;7.510;2023-05-10T11:38:52;20.70;1.00
1592;DHT22;789;51.612;7.510;2023-05-10T11:41:20;20.80;1.00
1592;DHT22;789;51.612;7.510;2023-05-10T11:43:52;20.60;1.00
1592;DHT22;789;51.612;7.510;2023-05-10T11:46:20;20.80;1.00
1592;DHT22;789;51.612;7.510;2023-05-10T11:48:51;20.60;1.00
1592;DHT22;789;51.612;7.510;2023-05-10T11:51:23;20.60;1.00
1592;DHT22;789;51.612;7.510;2023-05-10T11:53:58;20.50;1.00
1592;DHT22;789;51.612;7.510;2023-05-10T11:56:28;20.40;1.00
1592;DHT22;789;51.612;7.510;2023-05-10T11:58:56;20.70;1.00
1592;DHT22;789;51.612;7.510;2023-05-10T12:01:23;21.20;1.00
1592;DHT22;789;51.612;7.510;2023-05-10T12:03:52;21.70;1.00
1592;DHT22;789;51.612;7.510;2023-05-10T12:06:20;22.00;1.00
1592;DHT22;789;51.612;7.510;2023-05-10T12:08:49;22.00;1.00
1592;DHT22;789;51.612;7.510;2023-05-10T12:11:24;22.10;1.00
1592;DHT22;789;51.612;7.510;2023-05-10T12:13:51;22.00;1.00
1592;DHT22;789;51.612;7.510;2023-05-10T12:16:20;22.00;1.00
1592;DHT22;789;51.612;7.510;2023-05-10T12:18:53;22.00;1.00
1592;DHT22;789;51.612;7.510;2023-05-10T12:21:22;22.10;1.00
1592;DHT22;789;51.612;7.510;2023-05-10T12:23:51;22.30;1.00
1592;DHT22;789;51.612;7.510;2023-05-10T12:26:25;22.40;1.00
1592;DHT22;789;51.612;7.510;2023-05-10T12:28:53;22.60;1.00
1592;DHT22;789;51.612;7.510;2023-05-10T12:31:20;22.70;1.00
1592;DHT22;789;51.612;7.510;2023-05-10T12:33:49;23.00;1.00
1592;DHT22;789;51.612;7.510;2023-05-10T12:36:16;23.00;1.00
1592;DHT22;789;51.612;7.510;2023-05-10T12:38:51;22.90;1.00
1592;DHT22;789;51.612;7.510;2023-05-10T12:41:29;22.60;1.00
1592;DHT22;789;51.612;7.510;2023-05-10T12:43:56;22.40;1.00
1592;DHT22;789;51.612;7.510;2023-05-10T12:46:24;22.40;1.00
1592;DHT22;789;51.612;7.510;2023-05-10T12:48:53;22.40;1.00
1592;DHT22;789;51.612;7.510;2023-05-10T12:51:21;22.40;1.00
1592;DHT22;789;51.612;7.510;2023-05-10T12:53:48;22.30;1.00
1592;DHT22;789;51.612;7.510;2023-05-10T12:56:18;22.40;1.00
1592;DHT22;789;51.612;7.510;2023-05-10T12:58:49;22.50;1.00
1592;DHT22;789;51.612;7.510;2023-05-10T13:01:16;22.50;1.00
1592;DHT22;789;51.612;7.510;2023-05-10T13:03:43;22.40;1.00
1592;DHT22;789;51.612;7.510;2023-05-10T13:06:10;22.40;1.00
1592;DHT22;789;51.612;7.510;2023-05-10T13:08:38;22.30;1.00
1592;DHT22;789;51.612;7.510;2023-05-10T13:11:05;22.10;1.00
1592;DHT22;789;51.612;7.510;2023-05-10T13:13:32;22.00;1.00
1592;DHT22;789;51.612;7.510;2023-05-10T13:16:03;22.00;1.00
1592;DHT22;789;51.612;7.510;2023-05-10T13:18:30;22.20;1.00
1592;DHT22;789;51.612;7.510;2023-05-10T13:20:57;21.90;1.00
1592;DHT22;789;51.612;7.510;2023-05-10T13:23:24;21.80;1.00
1592;DHT22;789;51.612;7.510;2023-05-10T13:25:52;21.70;1.00
1592;DHT22;789;51.612;7.510;2023-05-10T13:28:19;21.60;1.00
1592;DHT22;789;51.612;7.510;2023-05-10T13:30:46;21.70;1.00
1592;DHT22;789;51.612;7.510;2023-05-10T13:33:16;21.70;1.00
1592;DHT22;789;51.612;7.510;2023-05-10T13:35:43;21.90;1.00
1592;DHT22;789;51.612;7.510;2023-05-10T13:38:12;21.90;1.00
1592;DHT22;789;51.612;7.510;2023-05-10T13:40:41;21.90;1.00
1592;DHT22;789;51.612;7.510;2023-05-10T13:43:09;21.70;1.00
1592;DHT22;789;51.612;7.510;2023-05-10T13:45:37;21.60;1.00
1592;DHT22;789;51.612;7.510;2023-05-10T13:48:07;21.80;1.00
1592;DHT22;789;51.612;7.510;2023-05-10T13:50:35;21.50;1.00
1592;DHT22;789;51.612;7.510;2023-05-10T13:53:02;21.50;1.00
1592;DHT22;789;51.612;7.510;2023-05-10T13:55:31;21.30;1.00
1592;DHT22;789;51.612;7.510;2023-05-10T13:57:59;21.20;1.00
1592;DHT22;789;51.612;7.510;2023-05-10T14:00:26;21.10;1.00
1592;DHT22;789;51.612;7.510;2023-05-10T14:02:54;21.10;1.00
1592;DHT22;789;51.612;7.510;2023-05-10T14:05:21;21.20;1.00
1592;DHT22;789;51.612;7.510;2023-05-10T14:07:50;21.40;1.00
1592;DHT22;789;51.612;7.510;2023-05-10T14:10:20;21.50;1.00
1592;DHT22;789;51.612;7.510;2023-05-10T14:12:47;21.40;1.00
1592;DHT22;789;51.612;7.510;2023-05-10T14:15:14;21.50;1.00
1592;DHT22;789;51.612;7.510;2023-05-10T14:17:41;21.40;1.00
1592;DHT22;789;51.612;7.510;2023-05-10T14:20:08;21.40;1.00
1592;DHT22;789;51.612;7.510;2023-05-10T14:22:37;21.50;1.00
1592;DHT22;789;51.612;7.510;2023-05-10T14:25:09;21.50;1.00
1592;DHT22;789;51.612;7.510;2023-05-10T14:27:36;21.50;1.00
1592;DHT22;789;51.612;7.510;2023-05-10T14:30:04;21.80;1.00
1592;DHT22;789;51.612;7.510;2023-05-10T14:32:31;21.30;1.00
1592;DHT22;789;51.612;7.510;2023-05-10T14:34:59;21.30;1.00
1592;DHT22;789;51.612;7.510;2023-05-10T14:37:26;21.30;1.00
1592;DHT22;789;51.612;7.510;2023-05-10T14:39:55;21.40;1.00
1592;DHT22;789;51.612;7.510;2023-05-10T14:42:24;21.40;1.00
1592;DHT22;789;51.612;7.510;2023-05-10T14:44:52;21.20;1.00
1592;DHT22;789;51.612;7.510;2023-05-10T14:47:19;21.20;1.00
1592;DHT22;789;51.612;7.510;2023-05-10T14:49:46;21.20;1.00
1592;DHT22;789;51.612;7.510;2023-05-10T14:52:12;21.00;1.00
1592;DHT22;789;51.612;7.510;2023-05-10T14:54:39;20.90;1.00
1592;DHT22;789;51.612;7.510;2023-05-10T14:57:08;21.00;1.00
1592;DHT22;789;51.612;7.510;2023-05-10T14:59:36;21.00;1.00
1592;DHT22;789;51.612;7.510;2023-05-10T15:02:03;21.00;1.00
1592;DHT22;789;51.612;7.510;2023-05-10T15:04:31;20.90;1.00
1592;DHT22;789;51.612;7.510;2023-05-10T15:06:57;20.90;1.00
1592;DHT22;789;51.612;7.510;2023-05-10T15:09:25;20.90;1.00
1592;DHT22;789;51.612;7.510;2023-05-10T15:11:52;21.00;1.00
1592;DHT22;789;51.612;7.510;2023-05-10T15:14:19;21.10;1.00
1592;DHT22;789;51.612;7.510;2023-05-10T15:16:47;21.00;1.00
1592;DHT22;789;51.612;7.510;2023-05-10T15:19:14;21.10;1.00
1592;DHT22;789;51.612;7.510;2023-05-10T15:21:41;21.20;1.00
1592;DHT22;789;51.612;7.510;2023-05-10T15:24:09;21.30;1.00
1592;DHT22;789;51.612;7.510;2023-05-10T15:26:36;21.30;1.00
1592;DHT22;789;51.612;7.510;2023-05-10T15:29:03;21.40;1.00
1592;DHT22;789;51.612;7.510;2023-05-10T15:31:30;21.50;1.00
1592;DHT22;789;51.612;7.510;2023-05-10T15:33:58;21.60;1.00
1592;DHT22;789;51.612;7.510;2023-05-10T15:36:25;21.70;1.00
1592;DHT22;789;51.612;7.510;2023-05-10T15:38:53;21.50;1.00
1592;DHT22;789;51.612;7.510;2023-05-10T15:41:20;21.40;1.00
1592;DHT22;789;51.612;7.510;2023-05-10T15:43:47;21.50;1.00
1592;DHT22;789;51.612;7.510;2023-05-10T15:46:14;21.50;1.00
1592;DHT22;789;51.612;7.510;2023-05-10T15:48:40;21.60;1.00
1592;DHT22;789;51.612;7.510;2023-05-10T15:51:11;21.60;1.00
1592;DHT22;789;51.612;7.510;2023-05-10T15:53:38;21.60;1.00
1592;DHT22;789;51.612;7.510;2023-05-10T15:56:05;21.50;1.00
1592;DHT22;789;51.612;7.510;2023-05-10T15:58:32;21.60;1.00
1592;DHT22;789;51.612;7.510;2023-05-10T16:00:59;21.60;1.00
1592;DHT22;789;51.612;7.510;2023-05-10T16:03:26;21.70;1.00
1592;DHT22;789;51.612;7.510;2023-05-10T16:05:53;21.80;1.00
1592;DHT22;789;51.612;7.510;2023-05-10T16:08:22;21.80;1.00
1592;DHT22;789;51.612;7.510;2023-05-10T16:10:49;21.70;1.00
1592;DHT22;789;51.612;7.510;2023-05-10T16:13:16;21.70;1.00
1592;DHT22;789;51.612;7.510;2023-05-10T16:15:43;21.60;1.00
1592;DHT22;789;51.612;7.510;2023-05-10T16:18:10;21.60;1.00
1592;DHT22;789;51.612;7.510;2023-05-10T16:20:37;21.50;1.00
1592;DHT22;789;51.612;7.510;2023-05-10T16:23:06;21.40;1.00
1592;DHT22;789;51.612;7.510;2023-05-10T16:25:34;21.30;1.00
1592;DHT22;789;51.612;7.510;2023-05-10T16:28:01;21.30;1.00
1592;DHT22;789;51.612;7.510;2023-05-10T16:30:28;21.30;1.00
1592;DHT22;789;51.612;7.510;2023-05-10T16:32:55;21.30;1.00
1592;DHT22;789;51.612;7.510;2023-05-10T16:35:22;21.40;1.00
1592;DHT22;789;51.612;7.510;2023-05-10T16:37:48;21.30;1.00
1592;DHT22;789;51.612;7.510;2023-05-10T16:40:15;21.30;1.00
1592;DHT22;789;51.612;7.510;2023-05-10T16:42:44;21.40;1.00
1592;DHT22;789;51.612;7.510;2023-05-10T16:45:11;21.40;1.00